createdAt,value
2022-08-31T00:01:33.547Z,11.50
2022-08-31T00:04:03.634Z,11.38
2022-08-31T00:06:32.648Z,9.57
2022-08-31T00:09:01.477Z,13.55
2022-08-31T00:11:31.166Z,9.90
2022-08-31T00:14:03.150Z,8.75
2022-08-31T00:16:34.094Z,10.85
2022-08-31T00:19:03.390Z,7.38
2022-08-31T00:21:31.831Z,13.65
2022-08-31T00:24:00.352Z,9.52
2022-08-31T00:26:28.548Z,10.10
2022-08-31T00:28:56.666Z,9.98
2022-08-31T00:31:26.472Z,8.73
2022-08-31T00:33:55.542Z,8.10
2022-08-31T00:36:25.882Z,8.30
2022-08-31T00:38:56.940Z,7.45
2022-08-31T00:41:27.390Z,7.20
2022-08-31T00:43:58.209Z,8.65
2022-08-31T00:46:29.698Z,8.45
2022-08-31T00:49:02.114Z,6.78
2022-08-31T00:51:32.028Z,7.45
2022-08-31T00:54:01.557Z,9.38
2022-08-31T00:56:31.462Z,10.68
2022-08-31T00:59:01.176Z,7.85
2022-08-31T01:01:31.031Z,10.07
2022-08-31T01:04:00.232Z,9.23
2022-08-31T01:06:28.695Z,9.35
2022-08-31T01:08:59.508Z,11.82
2022-08-31T01:11:28.050Z,9.73
2022-08-31T01:13:56.364Z,10.38
2022-08-31T01:16:27.938Z,12.52
2022-08-31T01:21:29.859Z,8.88
2022-08-31T01:24:01.864Z,8.48
2022-08-31T01:26:31.574Z,10.50
2022-08-31T01:29:05.592Z,9.15
2022-08-31T01:31:36.451Z,7.60
2022-08-31T01:34:05.522Z,7.35
2022-08-31T01:36:34.355Z,8.88
2022-08-31T01:39:04.647Z,7.38
2022-08-31T01:41:33.111Z,6.97
2022-08-31T01:44:01.199Z,9.15
2022-08-31T01:46:29.461Z,7.82
2022-08-31T01:48:57.721Z,9.77
2022-08-31T01:51:25.775Z,7.25
2022-08-31T01:53:54.647Z,8.85
2022-08-31T01:56:26.530Z,6.68
2022-08-31T01:58:54.788Z,7.57
2022-08-31T02:01:33.784Z,8.68
2022-08-31T02:04:08.583Z,11.13
2022-08-31T02:06:37.145Z,7.15
2022-08-31T02:09:07.380Z,6.68
2022-08-31T02:11:37.237Z,7.57
2022-08-31T02:14:05.891Z,6.78
2022-08-31T02:16:34.064Z,8.27
2022-08-31T02:19:02.370Z,7.32
2022-08-31T02:21:30.496Z,9.30
2022-08-31T02:23:58.547Z,9.35
2022-08-31T02:26:27.015Z,11.25
2022-08-31T02:28:56.569Z,10.07
2022-08-31T02:31:24.637Z,8.48
2022-08-31T02:33:52.865Z,7.60
2022-08-31T02:36:20.981Z,8.45
2022-08-31T02:38:49.151Z,6.43
2022-08-31T02:41:17.780Z,8.77
2022-08-31T02:43:46.258Z,7.32
2022-08-31T02:46:15.796Z,7.95
2022-08-31T02:48:44.182Z,9.98
2022-08-31T02:51:12.902Z,9.98
2022-08-31T02:53:41.116Z,10.27
2022-08-31T02:56:13.119Z,9.35
2022-08-31T02:58:41.716Z,8.48
2022-08-31T03:01:10.338Z,9.63
2022-08-31T03:03:40.553Z,7.40
2022-08-31T03:06:12.035Z,8.35
2022-08-31T03:08:42.421Z,6.38
2022-08-31T03:11:11.222Z,9.23
2022-08-31T03:13:40.145Z,9.00
2022-08-31T03:16:08.785Z,7.80
2022-08-31T03:18:36.920Z,7.03
2022-08-31T03:21:06.873Z,6.90
2022-08-31T03:23:35.249Z,8.40
2022-08-31T03:26:05.601Z,12.82
2022-08-31T03:28:34.589Z,10.80
2022-08-31T03:31:02.938Z,13.05
2022-08-31T03:33:31.136Z,10.98
2022-08-31T03:35:59.399Z,12.98
2022-08-31T03:38:29.235Z,13.43
2022-08-31T03:40:57.565Z,9.45
2022-08-31T03:43:25.895Z,11.18
2022-08-31T03:45:55.426Z,9.30
2022-08-31T03:48:24.215Z,10.30
2022-08-31T03:50:52.381Z,10.50
2022-08-31T03:53:23.048Z,7.25
2022-08-31T03:55:54.119Z,7.30
2022-08-31T03:58:22.376Z,8.45
2022-08-31T04:00:50.511Z,9.25
2022-08-31T04:03:18.870Z,5.28
2022-08-31T04:05:47.410Z,8.02
2022-08-31T04:08:16.485Z,8.35
2022-08-31T04:10:46.141Z,8.95
2022-08-31T04:13:15.958Z,8.27
2022-08-31T04:15:44.231Z,8.63
2022-08-31T04:18:14.007Z,7.85
2022-08-31T04:20:42.379Z,11.07
2022-08-31T04:23:11.327Z,8.43
2022-08-31T04:25:40.458Z,9.25
2022-08-31T04:28:09.202Z,8.80
2022-08-31T04:30:43.879Z,9.18
2022-08-31T04:33:12.288Z,8.57
2022-08-31T04:35:41.635Z,8.77
2022-08-31T04:38:10.333Z,11.18
2022-08-31T04:40:41.289Z,6.72
2022-08-31T04:43:09.845Z,6.53
2022-08-31T04:45:44.596Z,6.85
2022-08-31T04:48:14.696Z,10.73
2022-08-31T04:50:43.301Z,8.65
2022-08-31T04:53:12.454Z,10.32
2022-08-31T04:55:41.549Z,7.28
2022-08-31T04:58:09.777Z,10.10
2022-08-31T05:00:38.391Z,6.30
2022-08-31T05:03:08.043Z,6.15
2022-08-31T05:05:38.874Z,5.88
2022-08-31T05:08:07.500Z,7.55
2022-08-31T05:10:35.915Z,7.53
2022-08-31T05:13:04.056Z,9.48
2022-08-31T05:15:32.329Z,9.40
2022-08-31T05:18:01.006Z,10.30
2022-08-31T05:20:30.571Z,9.43
2022-08-31T05:22:58.859Z,8.60
2022-08-31T05:25:27.498Z,7.03
2022-08-31T05:27:56.512Z,8.57
2022-08-31T05:30:25.377Z,10.15
2022-08-31T05:32:53.490Z,9.65
2022-08-31T05:35:21.719Z,10.20
2022-08-31T05:37:52.710Z,7.55
2022-08-31T05:40:21.016Z,10.85
2022-08-31T05:42:49.315Z,10.73
2022-08-31T05:45:18.896Z,13.38
2022-08-31T05:47:47.094Z,10.93
2022-08-31T05:50:15.244Z,8.25
2022-08-31T05:52:43.581Z,11.45
2022-08-31T05:55:13.191Z,9.75
2022-08-31T05:57:41.319Z,11.82
2022-08-31T06:00:10.960Z,10.00
2022-08-31T06:02:40.219Z,6.97
2022-08-31T06:05:08.926Z,11.63
2022-08-31T06:07:37.413Z,8.68
2022-08-31T06:10:06.464Z,5.55
2022-08-31T06:12:39.122Z,10.73
2022-08-31T06:15:08.261Z,7.18
2022-08-31T06:17:36.903Z,8.45
2022-08-31T06:20:07.212Z,8.95
2022-08-31T06:22:36.134Z,9.07
2022-08-31T06:25:06.233Z,9.68
2022-08-31T06:27:38.926Z,5.50
2022-08-31T06:30:08.667Z,5.68
2022-08-31T06:32:36.767Z,7.53
2022-08-31T06:35:05.519Z,8.93
2022-08-31T06:37:33.857Z,7.30
2022-08-31T06:40:04.337Z,6.35
2022-08-31T06:42:32.446Z,5.47
2022-08-31T06:45:02.156Z,5.88
2022-08-31T06:47:30.340Z,6.07
2022-08-31T06:49:58.424Z,7.35
2022-08-31T06:52:27.346Z,5.25
2022-08-31T06:54:55.544Z,5.47
2022-08-31T06:57:24.043Z,7.78
2022-08-31T06:59:53.915Z,5.03
2022-08-31T07:02:23.418Z,8.85
2022-08-31T07:04:51.576Z,7.57
2022-08-31T07:07:19.851Z,4.05
2022-08-31T07:09:48.122Z,10.57
2022-08-31T07:12:16.350Z,6.70
2022-08-31T07:14:54.705Z,6.70
2022-08-31T07:17:25.065Z,5.15
2022-08-31T07:19:53.424Z,4.07
2022-08-31T07:22:21.600Z,6.68
2022-08-31T07:24:49.922Z,4.88
2022-08-31T07:27:18.627Z,5.15
2022-08-31T07:29:47.466Z,5.68
2022-08-31T07:32:17.537Z,4.07
2022-08-31T07:34:50.477Z,4.07
2022-08-31T07:37:41.156Z,4.13
2022-08-31T07:40:27.970Z,4.47
2022-08-31T07:42:56.452Z,5.70
2022-08-31T07:45:29.166Z,4.40
2022-08-31T07:48:01.214Z,7.30
2022-08-31T07:50:31.736Z,8.48
2022-08-31T07:53:00.447Z,7.43
2022-08-31T07:55:29.456Z,6.07
2022-08-31T07:57:58.248Z,5.40
2022-08-31T08:00:29.013Z,6.55
2022-08-31T08:03:07.483Z,5.18
2022-08-31T08:05:38.878Z,6.63
2022-08-31T08:08:13.566Z,10.07
2022-08-31T08:10:51.911Z,6.90
2022-08-31T08:13:21.300Z,5.97
2022-08-31T08:15:52.099Z,11.73
2022-08-31T08:18:21.258Z,6.90
2022-08-31T08:20:52.351Z,6.68
2022-08-31T08:23:28.434Z,6.68
2022-08-31T08:26:01.335Z,5.93
2022-08-31T08:28:45.972Z,7.72
2022-08-31T08:31:15.926Z,5.68
2022-08-31T08:33:45.361Z,6.70
2022-08-31T08:36:18.577Z,9.02
2022-08-31T08:38:49.004Z,6.13
2022-08-31T08:41:20.285Z,9.07
2022-08-31T08:43:52.768Z,7.10
2022-08-31T08:46:37.860Z,6.60
2022-08-31T08:49:15.896Z,7.40
2022-08-31T08:51:46.970Z,4.45
2022-08-31T08:54:24.027Z,10.23
2022-08-31T08:56:52.191Z,8.35
2022-08-31T08:59:20.788Z,8.63
2022-08-31T09:01:51.237Z,8.40
2022-08-31T09:07:02.742Z,6.97
2022-08-31T09:09:36.457Z,6.28
2022-08-31T09:12:24.925Z,7.18
2022-08-31T09:15:11.375Z,10.15
2022-08-31T09:17:43.624Z,6.15
2022-08-31T09:20:13.377Z,9.77
2022-08-31T09:22:48.803Z,7.43
2022-08-31T09:25:20.349Z,7.78
2022-08-31T09:27:57.331Z,3.67
2022-08-31T09:30:39.999Z,6.38
2022-08-31T09:33:09.746Z,5.05
2022-08-31T09:35:41.445Z,6.68
2022-08-31T09:38:18.149Z,6.13
2022-08-31T09:40:48.637Z,7.60
2022-08-31T09:46:02.633Z,7.82
2022-08-31T09:48:44.575Z,7.00
2022-08-31T09:51:22.564Z,5.45
2022-08-31T09:54:11.663Z,5.57
2022-08-31T09:56:55.403Z,5.20
2022-08-31T09:59:34.225Z,5.05
2022-08-31T10:02:05.988Z,4.78
2022-08-31T10:04:38.329Z,3.30
2022-08-31T10:07:14.227Z,2.05
2022-08-31T10:09:47.167Z,3.40
2022-08-31T10:12:19.868Z,4.07
2022-08-31T10:14:51.886Z,2.80
2022-08-31T10:17:26.277Z,3.22
2022-08-31T10:20:07.652Z,3.10
2022-08-31T10:22:42.071Z,2.42
2022-08-31T10:25:21.675Z,2.17
2022-08-31T10:27:56.119Z,2.17
2022-08-31T10:30:29.410Z,3.00
2022-08-31T10:33:05.073Z,2.63
2022-08-31T10:35:41.524Z,5.10
2022-08-31T10:38:24.209Z,2.17
2022-08-31T10:41:03.837Z,3.25
2022-08-31T10:43:36.067Z,1.83
2022-08-31T10:46:06.080Z,3.00
2022-08-31T10:48:36.735Z,2.03
2022-08-31T10:53:53.052Z,4.03
2022-08-31T10:56:40.589Z,3.10
2022-08-31T10:59:25.000Z,2.92
2022-08-31T11:02:16.840Z,1.48
2022-08-31T11:04:55.833Z,3.08
2022-08-31T11:07:46.934Z,3.10
2022-08-31T11:10:26.689Z,2.75
2022-08-31T11:13:02.662Z,3.35
2022-08-31T11:15:44.146Z,3.25
2022-08-31T11:18:41.576Z,2.63
2022-08-31T11:21:42.270Z,2.30
2022-08-31T11:24:36.998Z,1.92
2022-08-31T11:27:11.988Z,2.58
2022-08-31T11:29:44.707Z,2.05
2022-08-31T11:32:20.154Z,1.08
2022-08-31T11:34:51.826Z,4.15
2022-08-31T11:37:52.484Z,3.10
2022-08-31T11:41:06.315Z,1.73
2022-08-31T11:43:46.415Z,2.40
2022-08-31T11:46:47.690Z,2.58
2022-08-31T11:49:54.370Z,1.83
2022-08-31T11:52:43.610Z,3.30
2022-08-31T11:55:21.334Z,3.55
2022-08-31T11:58:26.186Z,3.38
2022-08-31T12:01:01.794Z,1.77
2022-08-31T12:03:53.234Z,2.22
2022-08-31T12:07:07.587Z,3.13
2022-08-31T12:10:00.415Z,2.08
2022-08-31T12:12:43.915Z,2.15
2022-08-31T12:15:22.876Z,1.23
2022-08-31T12:18:06.137Z,1.83
2022-08-31T12:21:13.579Z,1.27
2022-08-31T12:23:49.417Z,2.92
2022-08-31T12:26:27.391Z,1.45
2022-08-31T12:29:26.995Z,2.90
2022-08-31T12:32:20.816Z,1.42
2022-08-31T12:34:53.895Z,2.78
2022-08-31T12:37:28.821Z,1.52
2022-08-31T12:40:19.990Z,1.10
2022-08-31T12:42:59.449Z,1.88
2022-08-31T12:45:45.359Z,2.05
2022-08-31T12:48:22.664Z,3.70
2022-08-31T12:50:57.506Z,5.03
2022-08-31T12:54:03.177Z,3.40
2022-08-31T12:56:37.079Z,2.38
2022-08-31T12:59:17.634Z,1.00
2022-08-31T13:01:48.186Z,2.63
2022-08-31T13:04:18.345Z,1.92
2022-08-31T13:06:48.471Z,2.75
2022-08-31T13:09:29.123Z,2.35
2022-08-31T13:11:59.156Z,2.95
2022-08-31T13:14:29.559Z,0.90
2022-08-31T13:17:01.951Z,1.67
2022-08-31T13:19:33.340Z,1.15
2022-08-31T13:24:33.652Z,1.95
2022-08-31T13:27:08.204Z,1.45
2022-08-31T13:29:44.267Z,2.25
2022-08-31T13:32:14.962Z,1.20
2022-08-31T13:34:43.210Z,1.95
2022-08-31T13:37:15.509Z,1.70
2022-08-31T13:39:47.015Z,1.83
2022-08-31T13:42:28.536Z,1.00
2022-08-31T13:45:00.467Z,2.40
2022-08-31T13:47:32.084Z,2.25
2022-08-31T13:50:07.391Z,2.70
2022-08-31T13:52:37.120Z,3.08
2022-08-31T13:55:09.408Z,1.50
2022-08-31T13:57:38.514Z,1.90
2022-08-31T14:00:29.622Z,1.23
2022-08-31T14:03:01.774Z,1.45
2022-08-31T14:05:33.414Z,5.25
2022-08-31T14:08:03.915Z,2.85
2022-08-31T14:10:36.302Z,2.15
2022-08-31T14:13:10.205Z,2.03
2022-08-31T14:15:42.302Z,1.10
2022-08-31T14:18:25.321Z,2.13
2022-08-31T14:21:23.181Z,1.67
2022-08-31T14:23:54.242Z,1.38
2022-08-31T14:26:29.114Z,2.75
2022-08-31T14:29:00.446Z,2.80
2022-08-31T14:31:32.834Z,1.73
2022-08-31T14:34:23.261Z,2.33
2022-08-31T14:36:57.648Z,1.55
2022-08-31T14:39:30.082Z,2.10
2022-08-31T14:42:02.097Z,1.60
2022-08-31T14:44:33.560Z,1.20
2022-08-31T14:47:02.474Z,1.13
2022-08-31T14:49:36.046Z,1.20
2022-08-31T14:52:06.956Z,1.95
2022-08-31T14:54:37.545Z,1.77
2022-08-31T14:57:12.546Z,1.15
2022-08-31T14:59:43.498Z,1.65
2022-08-31T15:04:45.966Z,3.63
2022-08-31T15:07:15.925Z,3.30
2022-08-31T15:09:47.806Z,2.75
2022-08-31T15:12:20.208Z,2.95
2022-08-31T15:14:49.900Z,1.88
2022-08-31T15:17:20.706Z,3.53
2022-08-31T15:19:55.373Z,2.20
2022-08-31T15:22:25.771Z,1.30
2022-08-31T15:24:54.937Z,3.25
2022-08-31T15:27:29.252Z,2.38
2022-08-31T15:30:07.718Z,3.40
2022-08-31T15:32:42.245Z,2.42
2022-08-31T15:35:14.348Z,2.38
2022-08-31T15:37:45.065Z,2.63
2022-08-31T15:40:14.024Z,4.28
2022-08-31T15:42:48.587Z,2.90
2022-08-31T15:45:17.266Z,1.85
2022-08-31T15:48:03.051Z,4.50
2022-08-31T15:50:32.755Z,2.10
2022-08-31T15:53:09.022Z,2.13
2022-08-31T15:55:40.610Z,3.00
2022-08-31T16:00:42.085Z,3.42
2022-08-31T16:03:10.634Z,2.38
2022-08-31T16:05:39.973Z,2.20
2022-08-31T16:08:11.408Z,3.88
2022-08-31T16:10:43.307Z,2.03
2022-08-31T16:13:13.495Z,2.50
2022-08-31T16:15:41.588Z,1.38
2022-08-31T16:18:11.434Z,2.60
2022-08-31T16:20:41.158Z,5.20
2022-08-31T16:23:09.226Z,1.35
2022-08-31T16:25:48.441Z,4.07
2022-08-31T16:28:19.713Z,0.98
2022-08-31T16:30:48.142Z,1.83
2022-08-31T16:33:16.265Z,1.77
2022-08-31T16:35:46.060Z,3.17
2022-08-31T16:38:14.809Z,1.70
2022-08-31T16:40:43.216Z,2.55
2022-08-31T16:43:12.071Z,5.10
2022-08-31T16:45:42.527Z,2.95
2022-08-31T16:48:29.793Z,5.20
2022-08-31T16:51:02.443Z,2.42
2022-08-31T16:53:31.213Z,4.75
2022-08-31T16:56:00.060Z,3.15
2022-08-31T16:58:50.538Z,6.65
2022-08-31T17:01:22.067Z,11.48
2022-08-31T17:03:52.394Z,4.63
2022-08-31T17:06:21.145Z,3.77
2022-08-31T17:08:49.433Z,5.05
2022-08-31T17:11:21.231Z,5.95
2022-08-31T17:13:50.213Z,2.83
2022-08-31T17:16:22.255Z,3.72
2022-08-31T17:18:51.729Z,2.38
2022-08-31T17:21:22.450Z,4.10
2022-08-31T17:23:52.575Z,4.93
2022-08-31T17:26:21.446Z,2.67
2022-08-31T17:28:55.019Z,3.03
2022-08-31T17:31:26.468Z,2.65
2022-08-31T17:33:56.391Z,3.65
2022-08-31T17:36:25.665Z,3.55
2022-08-31T17:38:55.245Z,7.20
2022-08-31T17:41:26.692Z,5.35
2022-08-31T17:43:57.382Z,3.92
2022-08-31T17:46:27.753Z,2.17
2022-08-31T17:48:57.173Z,3.65
2022-08-31T17:51:28.141Z,4.22
2022-08-31T17:53:58.028Z,2.80
2022-08-31T17:56:28.695Z,3.97
2022-08-31T17:58:56.773Z,3.20
2022-08-31T18:01:31.042Z,2.90
2022-08-31T18:04:00.642Z,3.35
2022-08-31T18:06:29.386Z,2.65
2022-08-31T18:08:58.979Z,2.42
2022-08-31T18:11:27.998Z,4.28
2022-08-31T18:13:57.339Z,3.63
2022-08-31T18:16:26.886Z,4.18
2022-08-31T18:18:55.324Z,3.33
2022-08-31T18:21:24.669Z,2.80
2022-08-31T18:23:53.868Z,2.63
2022-08-31T18:26:24.201Z,2.38
2022-08-31T18:28:53.414Z,3.28
2022-08-31T18:31:30.441Z,4.22
2022-08-31T18:34:02.758Z,2.25
2022-08-31T18:36:32.145Z,3.90
2022-08-31T18:39:01.812Z,2.67
2022-08-31T18:41:50.494Z,3.45
2022-08-31T18:44:51.221Z,2.20
2022-08-31T18:47:21.278Z,3.50
2022-08-31T18:49:52.337Z,3.77
2022-08-31T18:52:22.758Z,2.55
2022-08-31T18:54:52.469Z,4.88
2022-08-31T18:57:23.082Z,2.78
2022-08-31T18:59:51.531Z,2.90
2022-08-31T19:02:21.507Z,5.07
2022-08-31T19:04:51.802Z,2.85
2022-08-31T19:07:21.649Z,4.03
2022-08-31T19:09:49.912Z,1.90
2022-08-31T19:12:19.604Z,2.50
2022-08-31T19:14:50.601Z,4.07
2022-08-31T19:17:19.750Z,3.55
2022-08-31T19:19:51.196Z,3.08
2022-08-31T19:22:20.327Z,4.88
2022-08-31T19:24:49.731Z,3.10
2022-08-31T19:27:18.289Z,3.50
2022-08-31T19:29:46.377Z,3.22
2022-08-31T19:32:14.786Z,3.47
2022-08-31T19:34:44.137Z,3.50
2022-08-31T19:37:15.656Z,3.42
2022-08-31T19:39:45.789Z,2.55
2022-08-31T19:42:16.655Z,2.85
2022-08-31T19:44:55.917Z,3.97
2022-08-31T19:47:38.907Z,3.67
2022-08-31T19:50:13.514Z,3.70
2022-08-31T19:52:43.749Z,5.70
2022-08-31T19:55:12.519Z,3.92
2022-08-31T19:57:43.676Z,3.38
2022-08-31T20:00:13.585Z,2.92
2022-08-31T20:02:44.749Z,3.38
2022-08-31T20:05:15.306Z,3.65
2022-08-31T20:07:45.544Z,4.25
2022-08-31T20:10:14.488Z,4.40
2022-08-31T20:12:46.642Z,3.38
2022-08-31T20:15:15.591Z,6.35
2022-08-31T20:17:43.859Z,8.45
2022-08-31T20:20:13.537Z,5.05
2022-08-31T20:22:41.913Z,3.80
2022-08-31T20:25:18.062Z,4.32
2022-08-31T20:27:50.461Z,5.03
2022-08-31T20:30:19.530Z,6.47
2022-08-31T20:32:47.879Z,5.80
2022-08-31T20:35:16.413Z,4.72
2022-08-31T20:37:46.835Z,3.38
2022-08-31T20:40:17.341Z,5.93
2022-08-31T20:42:46.357Z,5.70
2022-08-31T20:45:20.762Z,5.78
2022-08-31T20:48:06.528Z,3.92
2022-08-31T20:50:35.849Z,3.40
2022-08-31T20:53:07.201Z,4.90
2022-08-31T20:55:37.433Z,4.03
2022-08-31T20:58:06.799Z,5.93
2022-08-31T21:00:34.897Z,5.63
2022-08-31T21:03:03.888Z,4.32
2022-08-31T21:05:38.475Z,3.15
2022-08-31T21:08:07.074Z,4.72
2022-08-31T21:10:38.713Z,7.32
2022-08-31T21:13:13.068Z,4.05
2022-08-31T21:15:44.195Z,3.92
2022-08-31T21:18:13.021Z,4.35
2022-08-31T21:20:41.151Z,4.90
2022-08-31T21:23:10.658Z,6.35
2022-08-31T21:25:45.312Z,5.22
2022-08-31T21:28:17.602Z,2.95
2022-08-31T21:30:47.308Z,3.85
2022-08-31T21:33:16.427Z,7.65
2022-08-31T21:35:44.676Z,4.25
2022-08-31T21:38:13.516Z,3.20
2022-08-31T21:40:49.770Z,7.18
2022-08-31T21:43:18.268Z,5.80
2022-08-31T21:45:47.010Z,6.93
2022-08-31T21:48:15.262Z,5.43
2022-08-31T21:50:43.950Z,4.05
2022-08-31T21:53:13.058Z,4.22
2022-08-31T21:55:41.104Z,4.60
2022-08-31T21:58:11.172Z,3.70
2022-08-31T22:00:42.313Z,5.40
2022-08-31T22:03:12.354Z,5.63
2022-08-31T22:05:41.802Z,5.13
2022-08-31T22:08:10.041Z,3.95
2022-08-31T22:10:41.147Z,4.22
2022-08-31T22:15:41.308Z,4.22
2022-08-31T22:18:58.078Z,4.85
2022-08-31T22:21:00.330Z,5.63
2022-08-31T22:23:29.096Z,4.00
2022-08-31T22:25:57.654Z,4.93
2022-08-31T22:28:27.877Z,5.28
2022-08-31T22:30:56.192Z,3.13
2022-08-31T22:33:24.483Z,3.20
2022-08-31T22:35:52.891Z,3.55
2022-08-31T22:38:21.166Z,5.18
2022-08-31T22:40:51.011Z,4.97
2022-08-31T22:43:19.618Z,5.22
2022-08-31T22:45:49.636Z,6.88
2022-08-31T22:48:17.898Z,3.95
2022-08-31T22:50:46.445Z,3.47
2022-08-31T22:53:14.950Z,5.00
2022-08-31T22:55:43.271Z,4.97
2022-08-31T22:58:12.554Z,6.03
2022-08-31T23:00:41.115Z,6.55
2022-08-31T23:03:13.700Z,5.60
2022-08-31T23:05:43.637Z,4.40
2022-08-31T23:08:12.520Z,4.40
2022-08-31T23:10:41.424Z,5.05
2022-08-31T23:13:09.719Z,3.78
2022-08-31T23:15:38.538Z,3.78
2022-08-31T23:18:10.718Z,4.63
2022-08-31T23:20:42.017Z,6.93
2022-08-31T23:23:10.646Z,4.43
2022-08-31T23:25:40.445Z,6.68
2022-08-31T23:28:08.800Z,5.57
2022-08-31T23:30:38.334Z,3.40
2022-08-31T23:33:07.024Z,4.47
2022-08-31T23:35:35.465Z,7.75
2022-08-31T23:38:05.040Z,5.10
2022-08-31T23:40:34.299Z,5.85
2022-08-31T23:43:04.044Z,6.88
2022-08-31T23:45:33.334Z,6.40
2022-08-31T23:48:02.253Z,5.68
2022-08-31T23:50:30.510Z,3.63
2022-08-31T23:52:58.719Z,4.82
2022-08-31T23:55:31.313Z,4.38
2022-08-31T23:57:59.766Z,7.28
